createdAt,value
2019-03-31T00:00:12.754Z,21.81
2019-03-31T00:02:39.445Z,21.79
2019-03-31T00:05:06.103Z,21.76
2019-03-31T00:07:32.742Z,21.76
2019-03-31T00:09:59.436Z,21.75
2019-03-31T00:12:26.080Z,21.71
2019-03-31T00:14:52.716Z,21.74
2019-03-31T00:17:19.383Z,21.72
2019-03-31T00:19:46.029Z,21.74
2019-03-31T00:22:12.718Z,21.72
2019-03-31T00:24:39.355Z,21.68
2019-03-31T00:27:06.004Z,21.67
2019-03-31T00:29:32.645Z,21.69
2019-03-31T00:31:59.333Z,21.70
2019-03-31T00:34:25.991Z,21.67
2019-03-31T00:36:52.626Z,21.68
2019-03-31T00:39:19.280Z,21.71
2019-03-31T00:41:45.920Z,21.66
2019-03-31T00:44:12.612Z,21.63
2019-03-31T00:46:39.248Z,21.63
2019-03-31T00:49:05.932Z,21.65
2019-03-31T00:51:32.572Z,21.62
2019-03-31T00:53:59.216Z,21.65
2019-03-31T00:56:25.909Z,21.61
2019-03-31T00:58:52.545Z,21.57
2019-03-31T01:01:19.197Z,21.59
2019-03-31T01:03:45.840Z,21.55
2019-03-31T01:06:12.511Z,21.56
2019-03-31T01:08:39.183Z,21.55
2019-03-31T01:11:05.828Z,21.56
2019-03-31T01:13:32.459Z,21.53
2019-03-31T01:15:59.118Z,21.51
2019-03-31T01:18:25.798Z,21.53
2019-03-31T01:20:52.437Z,21.49
2019-03-31T01:23:19.083Z,21.49
2019-03-31T01:25:45.731Z,21.47
2019-03-31T01:28:12.383Z,21.48
2019-03-31T01:30:39.031Z,21.47
2019-03-31T01:33:05.669Z,21.49
2019-03-31T01:35:32.327Z,21.46
2019-03-31T01:37:58.965Z,21.45
2019-03-31T01:40:25.723Z,21.45
2019-03-31T01:42:52.352Z,21.44
2019-03-31T01:45:18.982Z,21.43
2019-03-31T01:47:45.647Z,21.43
2019-03-31T01:50:12.361Z,21.40
2019-03-31T01:52:39.074Z,21.42
2019-03-31T01:55:05.724Z,21.41
2019-03-31T01:57:32.381Z,21.34
2019-03-31T01:59:59.016Z,21.33
2019-03-31T02:02:25.656Z,21.32
2019-03-31T02:04:52.306Z,21.36
2019-03-31T02:07:18.945Z,21.35
2019-03-31T02:09:45.594Z,21.37
2019-03-31T02:12:12.276Z,21.33
2019-03-31T02:14:38.937Z,21.32
2019-03-31T02:17:05.576Z,21.31
2019-03-31T02:19:32.215Z,21.28
2019-03-31T02:21:58.858Z,21.27
2019-03-31T02:24:25.525Z,21.30
2019-03-31T02:26:52.162Z,21.28
2019-03-31T02:29:18.808Z,21.25
2019-03-31T02:31:45.463Z,21.23
2019-03-31T02:34:12.100Z,21.24
2019-03-31T02:36:38.761Z,21.26
2019-03-31T02:39:05.446Z,21.20
2019-03-31T02:41:32.085Z,21.21
2019-03-31T02:43:58.721Z,21.20
2019-03-31T02:46:25.414Z,21.19
2019-03-31T02:48:52.044Z,21.21
2019-03-31T02:51:18.728Z,21.19
2019-03-31T02:53:45.379Z,21.14
2019-03-31T02:56:12.015Z,21.16
2019-03-31T02:58:38.702Z,21.14
2019-03-31T03:01:05.341Z,21.13
2019-03-31T03:03:31.977Z,21.11
2019-03-31T03:05:58.645Z,21.15
2019-03-31T03:08:25.270Z,21.13
2019-03-31T03:10:51.929Z,21.12
2019-03-31T03:13:18.576Z,21.10
2019-03-31T03:15:45.256Z,21.05
2019-03-31T03:18:11.898Z,21.08
2019-03-31T03:20:38.551Z,21.07
2019-03-31T03:23:05.200Z,21.07
2019-03-31T03:25:31.924Z,21.04
2019-03-31T03:27:58.565Z,21.03
2019-03-31T03:30:25.314Z,21.08
2019-03-31T03:33:13.728Z,21.05
2019-03-31T03:35:18.526Z,21.01
2019-03-31T03:37:45.209Z,21.00
2019-03-31T03:40:11.851Z,20.98
2019-03-31T03:42:38.532Z,21.02
2019-03-31T03:45:05.170Z,20.99
2019-03-31T03:47:31.867Z,21.01
2019-03-31T03:49:58.743Z,20.96
2019-03-31T03:52:25.210Z,20.95
2019-03-31T03:54:51.829Z,20.93
2019-03-31T03:57:18.477Z,20.93
2019-03-31T03:59:45.111Z,20.93
2019-03-31T04:02:11.762Z,20.88
2019-03-31T04:04:38.446Z,20.91
2019-03-31T04:07:05.080Z,20.90
2019-03-31T04:09:31.791Z,20.88
2019-03-31T04:11:58.462Z,20.92
2019-03-31T04:14:25.100Z,20.90
2019-03-31T04:16:51.782Z,20.88
2019-03-31T04:19:18.397Z,20.89
2019-03-31T04:21:45.038Z,20.88
2019-03-31T04:24:11.688Z,20.90
2019-03-31T04:26:38.369Z,20.85
2019-03-31T04:29:05.007Z,20.87
2019-03-31T04:31:31.663Z,20.90
2019-03-31T04:33:58.299Z,20.90
2019-03-31T04:36:24.954Z,20.93
2019-03-31T04:38:51.600Z,20.97
2019-03-31T04:41:18.349Z,21.07
2019-03-31T04:43:44.900Z,21.13
2019-03-31T04:46:12.801Z,21.18
2019-03-31T04:48:38.212Z,21.23
2019-03-31T04:51:04.849Z,21.27
2019-03-31T04:53:31.484Z,21.35
2019-03-31T04:55:58.158Z,21.39
2019-03-31T04:58:24.804Z,21.44
2019-03-31T05:00:51.636Z,21.53
2019-03-31T05:03:18.368Z,21.63
2019-03-31T05:05:45.112Z,21.70
2019-03-31T05:08:11.758Z,21.76
2019-03-31T05:10:38.447Z,21.85
2019-03-31T05:13:05.085Z,21.92
2019-03-31T05:15:31.718Z,22.00
2019-03-31T05:17:58.374Z,22.04
2019-03-31T05:20:25.185Z,22.10
2019-03-31T05:22:52.959Z,22.16
2019-03-31T05:25:18.475Z,22.21
2019-03-31T05:27:45.249Z,22.28
2019-03-31T05:30:11.896Z,22.30
2019-03-31T05:32:38.580Z,22.31
2019-03-31T05:35:05.229Z,22.35
2019-03-31T05:37:31.885Z,22.46
2019-03-31T05:39:58.604Z,22.45
2019-03-31T05:42:25.290Z,22.56
2019-03-31T05:44:51.924Z,22.60
2019-03-31T05:47:18.580Z,22.63
2019-03-31T05:49:45.215Z,22.66
2019-03-31T05:52:11.871Z,22.72
2019-03-31T05:54:38.553Z,22.80
2019-03-31T05:57:05.187Z,22.85
2019-03-31T05:59:31.867Z,22.96
2019-03-31T06:01:58.512Z,22.97
2019-03-31T06:04:33.145Z,23.01
2019-03-31T06:06:51.876Z,23.15
2019-03-31T06:09:18.477Z,23.13
2019-03-31T06:11:45.109Z,23.14
2019-03-31T06:14:11.771Z,23.23
2019-03-31T06:16:38.406Z,23.19
2019-03-31T06:19:05.086Z,23.22
2019-03-31T06:21:31.792Z,23.32
2019-03-31T06:23:58.430Z,23.38
2019-03-31T06:26:25.112Z,23.41
2019-03-31T06:28:51.756Z,23.44
2019-03-31T06:31:18.409Z,23.49
2019-03-31T06:33:45.183Z,23.54
2019-03-31T06:36:11.851Z,23.56
2019-03-31T06:38:38.540Z,23.66
2019-03-31T06:41:05.219Z,23.70
2019-03-31T06:43:31.939Z,23.76
2019-03-31T06:45:58.581Z,23.80
2019-03-31T06:48:25.269Z,23.83
2019-03-31T06:50:51.900Z,23.88
2019-03-31T06:53:18.558Z,23.92
2019-03-31T06:55:45.196Z,24.01
2019-03-31T06:58:11.927Z,24.05
2019-03-31T07:00:38.571Z,24.05
2019-03-31T07:03:05.210Z,24.09
2019-03-31T07:05:31.855Z,24.12
2019-03-31T07:07:58.510Z,23.88
2019-03-31T07:10:25.152Z,23.82
2019-03-31T07:12:51.789Z,23.82
2019-03-31T07:15:18.422Z,23.84
2019-03-31T07:17:45.062Z,23.99
2019-03-31T07:20:11.849Z,24.04
2019-03-31T07:22:38.661Z,24.05
2019-03-31T07:25:05.309Z,24.08
2019-03-31T07:27:31.956Z,24.16
2019-03-31T07:29:58.609Z,24.26
2019-03-31T07:32:25.265Z,24.33
2019-03-31T07:34:51.913Z,24.34
2019-03-31T07:37:18.556Z,24.39
2019-03-31T07:39:46.202Z,24.40
2019-03-31T07:42:11.963Z,24.45
2019-03-31T07:44:38.513Z,24.51
2019-03-31T07:47:05.262Z,24.48
2019-03-31T07:49:31.939Z,24.53
2019-03-31T07:51:58.627Z,24.55
2019-03-31T07:54:25.266Z,24.58
2019-03-31T07:56:51.908Z,24.60
2019-03-31T07:59:18.596Z,24.63
2019-03-31T08:01:45.238Z,24.64
2019-03-31T08:04:11.886Z,24.65
2019-03-31T08:06:38.552Z,24.62
2019-03-31T08:09:05.250Z,24.65
2019-03-31T08:11:31.925Z,24.62
2019-03-31T08:13:58.569Z,24.62
2019-03-31T08:16:25.216Z,24.64
2019-03-31T08:18:51.856Z,24.63
2019-03-31T08:21:18.509Z,24.63
2019-03-31T08:23:45.162Z,24.67
2019-03-31T08:26:11.802Z,24.66
2019-03-31T08:28:38.486Z,24.69
2019-03-31T08:31:05.127Z,24.68
2019-03-31T08:33:31.817Z,24.70
2019-03-31T08:35:58.453Z,24.70
2019-03-31T08:38:25.097Z,24.70
2019-03-31T08:40:51.764Z,24.70
2019-03-31T08:43:18.410Z,24.70
2019-03-31T08:45:45.046Z,24.71
2019-03-31T08:48:11.732Z,24.73
2019-03-31T08:50:38.367Z,24.71
2019-03-31T08:53:05.009Z,24.72
2019-03-31T08:55:31.696Z,24.72
2019-03-31T08:57:58.337Z,24.72
2019-03-31T09:00:25.140Z,24.73
2019-03-31T09:02:51.809Z,24.74
2019-03-31T09:05:18.472Z,24.74
2019-03-31T09:07:45.177Z,24.74
2019-03-31T09:10:11.857Z,24.72
2019-03-31T09:12:38.526Z,24.75
2019-03-31T09:15:05.173Z,24.75
2019-03-31T09:17:31.826Z,24.74
2019-03-31T09:19:58.480Z,24.73
2019-03-31T09:22:25.122Z,24.76
2019-03-31T09:24:51.769Z,24.74
2019-03-31T09:27:18.408Z,24.74
2019-03-31T09:29:45.097Z,24.73
2019-03-31T09:32:11.767Z,24.74
2019-03-31T09:34:38.504Z,24.73
2019-03-31T09:37:05.144Z,24.74
2019-03-31T09:39:31.784Z,24.74
2019-03-31T09:41:58.442Z,24.75
2019-03-31T09:44:25.085Z,24.76
2019-03-31T09:46:51.747Z,24.75
2019-03-31T09:49:18.400Z,24.71
2019-03-31T09:51:45.139Z,24.74
2019-03-31T09:54:11.895Z,24.77
2019-03-31T09:56:38.560Z,24.75
2019-03-31T09:59:05.205Z,24.77
2019-03-31T10:01:31.848Z,24.78
2019-03-31T10:03:58.535Z,24.77
2019-03-31T10:06:30.600Z,24.80
2019-03-31T10:08:51.819Z,24.77
2019-03-31T10:11:18.493Z,24.81
2019-03-31T10:13:45.127Z,24.82
2019-03-31T10:16:11.774Z,24.83
2019-03-31T10:18:38.431Z,24.81
2019-03-31T10:21:05.064Z,24.82
2019-03-31T10:23:31.722Z,24.84
2019-03-31T10:25:58.408Z,24.85
2019-03-31T10:28:25.046Z,24.87
2019-03-31T10:30:51.680Z,24.86
2019-03-31T10:33:18.332Z,24.87
2019-03-31T10:35:44.972Z,24.87
2019-03-31T10:38:11.760Z,24.90
2019-03-31T10:40:38.395Z,24.91
2019-03-31T10:43:07.842Z,24.93
2019-03-31T10:45:34.489Z,24.95
2019-03-31T10:48:01.139Z,24.96
2019-03-31T10:50:27.785Z,24.98
2019-03-31T10:52:54.597Z,25.00
2019-03-31T10:55:21.241Z,25.00
2019-03-31T10:57:47.890Z,25.02
2019-03-31T11:00:14.533Z,25.03
2019-03-31T11:02:41.196Z,25.04
2019-03-31T11:05:07.882Z,25.05
2019-03-31T11:07:34.519Z,25.08
2019-03-31T11:10:01.156Z,25.09
2019-03-31T11:12:27.841Z,25.11
2019-03-31T11:14:54.528Z,25.12
2019-03-31T11:17:21.179Z,25.12
2019-03-31T11:19:47.819Z,25.14
2019-03-31T11:22:14.474Z,25.14
2019-03-31T11:24:41.116Z,25.14
2019-03-31T11:27:07.819Z,25.17
2019-03-31T11:29:34.490Z,25.17
2019-03-31T11:32:01.102Z,25.19
2019-03-31T11:34:27.795Z,25.20
2019-03-31T11:36:54.449Z,25.21
2019-03-31T11:39:21.097Z,25.22
2019-03-31T11:41:47.753Z,25.25
2019-03-31T11:44:14.400Z,25.26
2019-03-31T11:46:41.082Z,25.27
2019-03-31T11:49:07.722Z,25.31
2019-03-31T11:51:34.352Z,25.30
2019-03-31T11:54:00.994Z,25.31
2019-03-31T11:56:27.621Z,25.33
2019-03-31T11:58:54.465Z,25.33
2019-03-31T12:01:21.113Z,25.33
2019-03-31T12:03:47.761Z,25.35
2019-03-31T12:06:14.405Z,25.36
2019-03-31T12:08:41.086Z,25.35
2019-03-31T12:11:07.783Z,25.36
2019-03-31T12:13:34.415Z,25.35
2019-03-31T12:16:01.055Z,25.39
2019-03-31T12:18:27.828Z,25.41
2019-03-31T12:20:54.470Z,25.42
2019-03-31T12:23:21.158Z,25.43
2019-03-31T12:25:48.102Z,25.43
2019-03-31T12:28:14.767Z,25.44
2019-03-31T12:30:41.405Z,25.45
2019-03-31T12:33:08.086Z,25.46
2019-03-31T12:35:34.720Z,25.46
2019-03-31T12:38:01.409Z,25.46
2019-03-31T12:40:28.054Z,25.48
2019-03-31T12:42:54.694Z,25.47
2019-03-31T12:45:21.351Z,25.48
2019-03-31T12:47:48.032Z,25.47
2019-03-31T12:50:14.667Z,25.47
2019-03-31T12:52:46.916Z,25.45
2019-03-31T12:55:08.041Z,25.44
2019-03-31T12:57:34.734Z,25.47
2019-03-31T13:00:01.359Z,25.46
2019-03-31T13:02:28.095Z,25.45
2019-03-31T13:04:54.654Z,25.48
2019-03-31T13:07:21.306Z,25.49
2019-03-31T13:09:48.017Z,25.48
2019-03-31T13:12:14.673Z,25.47
2019-03-31T13:14:41.383Z,25.52
2019-03-31T13:17:07.957Z,25.52
2019-03-31T13:19:34.639Z,25.46
2019-03-31T13:22:01.277Z,25.52
2019-03-31T13:24:27.974Z,25.50
2019-03-31T13:26:54.603Z,25.49
2019-03-31T13:29:21.240Z,25.50
2019-03-31T13:31:47.912Z,25.48
2019-03-31T13:34:14.552Z,25.50
2019-03-31T13:36:41.205Z,25.47
2019-03-31T13:39:07.848Z,25.51
2019-03-31T13:41:34.529Z,25.52
2019-03-31T13:44:01.174Z,25.50
2019-03-31T13:46:27.858Z,25.50
2019-03-31T13:48:54.542Z,25.49
2019-03-31T13:51:21.185Z,25.48
2019-03-31T13:53:47.862Z,25.47
2019-03-31T13:56:15.170Z,25.47
2019-03-31T13:58:41.809Z,25.48
2019-03-31T14:01:08.041Z,25.47
2019-03-31T14:03:34.597Z,25.47
2019-03-31T14:06:01.235Z,25.48
2019-03-31T14:08:27.928Z,25.46
2019-03-31T14:10:54.579Z,25.45
2019-03-31T14:13:21.227Z,25.45
2019-03-31T14:15:47.885Z,25.47
2019-03-31T14:18:14.548Z,25.45
2019-03-31T14:20:41.244Z,25.45
2019-03-31T14:23:07.885Z,25.45
2019-03-31T14:25:34.523Z,25.44
2019-03-31T14:28:01.209Z,25.43
2019-03-31T14:30:27.866Z,25.45
2019-03-31T14:32:54.505Z,25.44
2019-03-31T14:35:21.146Z,25.43
2019-03-31T14:37:47.830Z,25.41
2019-03-31T14:40:14.477Z,25.41
2019-03-31T14:42:41.145Z,25.40
2019-03-31T14:45:07.789Z,25.37
2019-03-31T14:47:34.477Z,25.39
2019-03-31T14:50:01.115Z,25.40
2019-03-31T14:52:28.050Z,25.39
2019-03-31T14:54:55.923Z,25.37
2019-03-31T14:57:21.048Z,25.37
2019-03-31T14:59:47.688Z,25.37
2019-03-31T15:02:14.331Z,25.37
2019-03-31T15:04:41.025Z,25.36
2019-03-31T15:07:07.665Z,25.33
2019-03-31T15:09:34.355Z,25.40
2019-03-31T15:12:00.994Z,25.19
2019-03-31T15:14:28.894Z,25.08
2019-03-31T15:16:54.344Z,24.98
2019-03-31T15:19:21.013Z,24.99
2019-03-31T15:21:47.658Z,25.03
2019-03-31T15:24:14.306Z,25.03
2019-03-31T15:26:40.980Z,25.04
2019-03-31T15:29:07.614Z,25.03
2019-03-31T15:31:34.276Z,25.03
2019-03-31T15:34:00.982Z,25.05
2019-03-31T15:36:27.629Z,25.03
2019-03-31T15:39:07.851Z,25.04
2019-03-31T15:41:21.621Z,25.02
2019-03-31T15:43:47.562Z,25.02
2019-03-31T15:46:14.303Z,25.01
2019-03-31T15:48:40.981Z,25.02
2019-03-31T15:51:07.705Z,24.99
2019-03-31T15:53:34.344Z,24.99
2019-03-31T15:56:01.030Z,24.98
2019-03-31T15:58:27.670Z,24.98
2019-03-31T16:00:54.305Z,24.97
2019-03-31T16:03:20.959Z,24.94
2019-03-31T16:05:47.608Z,24.94
2019-03-31T16:08:14.287Z,24.93
2019-03-31T16:10:40.926Z,24.90
2019-03-31T16:13:07.606Z,24.88
2019-03-31T16:15:34.248Z,24.88
2019-03-31T16:18:00.902Z,24.88
2019-03-31T16:20:27.539Z,24.85
2019-03-31T16:22:54.216Z,24.83
2019-03-31T16:25:20.943Z,24.83
2019-03-31T16:27:47.596Z,24.81
2019-03-31T16:30:14.275Z,24.81
2019-03-31T16:32:41.013Z,24.77
2019-03-31T16:35:07.655Z,24.76
2019-03-31T16:37:34.290Z,24.75
2019-03-31T16:40:00.939Z,24.73
2019-03-31T16:42:27.620Z,24.71
2019-03-31T16:44:58.380Z,24.69
2019-03-31T16:47:20.908Z,24.67
2019-03-31T16:49:47.553Z,24.67
2019-03-31T16:52:14.210Z,24.65
2019-03-31T16:54:40.888Z,24.64
2019-03-31T16:57:07.540Z,24.62
2019-03-31T16:59:34.200Z,24.62
2019-03-31T17:02:00.831Z,24.57
2019-03-31T17:04:27.474Z,24.57
2019-03-31T17:06:54.151Z,24.57
2019-03-31T17:09:20.796Z,24.56
2019-03-31T17:11:47.441Z,24.53
2019-03-31T17:14:14.083Z,24.51
2019-03-31T17:16:40.716Z,24.51
2019-03-31T17:19:07.350Z,24.52
2019-03-31T17:21:33.991Z,24.48
2019-03-31T17:24:00.679Z,24.47
2019-03-31T17:26:27.316Z,24.46
2019-03-31T17:28:54.004Z,24.46
2019-03-31T17:31:20.701Z,24.44
2019-03-31T17:33:47.430Z,24.42
2019-03-31T17:36:14.163Z,24.40
2019-03-31T17:38:40.856Z,24.41
2019-03-31T17:41:07.608Z,24.38
2019-03-31T17:43:34.254Z,24.38
2019-03-31T17:46:00.899Z,24.35
2019-03-31T17:48:27.548Z,24.33
2019-03-31T17:50:54.189Z,24.32
2019-03-31T17:53:20.824Z,24.30
2019-03-31T17:55:47.467Z,24.31
2019-03-31T17:58:14.121Z,24.27
2019-03-31T18:00:40.817Z,24.27
2019-03-31T18:03:07.529Z,24.25
2019-03-31T18:05:34.175Z,24.21
2019-03-31T18:08:00.826Z,24.20
2019-03-31T18:10:27.498Z,24.21
2019-03-31T18:12:54.139Z,24.19
2019-03-31T18:15:20.831Z,24.18
2019-03-31T18:17:47.464Z,24.15
2019-03-31T18:20:14.158Z,24.13
2019-03-31T18:22:40.960Z,24.12
2019-03-31T18:25:07.596Z,24.11
2019-03-31T18:27:34.254Z,24.08
2019-03-31T18:30:00.952Z,24.08
2019-03-31T18:32:27.600Z,24.07
2019-03-31T18:34:54.259Z,24.06
2019-03-31T18:37:20.935Z,24.04
2019-03-31T18:39:47.571Z,24.03
2019-03-31T18:42:14.221Z,24.03
2019-03-31T18:44:40.901Z,24.00
2019-03-31T18:47:07.608Z,23.98
2019-03-31T18:49:34.244Z,23.98
2019-03-31T18:52:00.881Z,23.97
2019-03-31T18:54:27.548Z,23.94
2019-03-31T18:56:54.187Z,23.92
2019-03-31T18:59:20.879Z,23.92
2019-03-31T19:01:47.512Z,23.89
2019-03-31T19:04:14.243Z,23.91
2019-03-31T19:06:40.879Z,23.87
2019-03-31T19:09:07.566Z,23.87
2019-03-31T19:11:34.209Z,23.85
2019-03-31T19:14:00.910Z,23.84
2019-03-31T19:16:27.513Z,23.83
2019-03-31T19:18:54.166Z,23.82
2019-03-31T19:21:20.813Z,23.80
2019-03-31T19:23:47.446Z,23.81
2019-03-31T19:26:14.132Z,23.79
2019-03-31T19:28:40.774Z,23.79
2019-03-31T19:31:07.408Z,23.77
2019-03-31T19:33:34.061Z,23.74
2019-03-31T19:36:00.693Z,23.76
2019-03-31T19:38:27.388Z,23.73
2019-03-31T19:41:03.876Z,23.75
2019-03-31T19:43:20.654Z,23.73
2019-03-31T19:45:47.312Z,23.71
2019-03-31T19:48:13.998Z,23.71
2019-03-31T19:50:40.633Z,23.70
2019-03-31T19:53:07.341Z,23.70
2019-03-31T19:55:33.974Z,23.69
2019-03-31T19:58:00.623Z,23.65
2019-03-31T20:00:27.251Z,23.62
2019-03-31T20:02:53.888Z,23.61
2019-03-31T20:05:20.539Z,23.60
2019-03-31T20:07:47.194Z,23.59
2019-03-31T20:10:14.458Z,23.58
2019-03-31T20:12:40.572Z,23.53
2019-03-31T20:15:07.233Z,23.55
2019-03-31T20:17:33.893Z,23.52
2019-03-31T20:20:00.539Z,23.52
2019-03-31T20:22:27.220Z,23.49
2019-03-31T20:24:53.859Z,23.49
2019-03-31T20:27:20.498Z,23.48
2019-03-31T20:29:47.156Z,23.48
2019-03-31T20:32:13.793Z,23.44
2019-03-31T20:34:40.427Z,23.44
2019-03-31T20:37:07.080Z,23.42
2019-03-31T20:39:33.723Z,23.42
2019-03-31T20:42:00.367Z,23.41
2019-03-31T20:44:27.008Z,23.41
2019-03-31T20:46:53.636Z,23.37
2019-03-31T20:49:20.287Z,23.39
2019-03-31T20:51:46.942Z,23.35
2019-03-31T20:54:13.614Z,23.34
2019-03-31T20:56:40.251Z,23.36
2019-03-31T20:59:06.939Z,23.33
2019-03-31T21:01:33.572Z,23.30
2019-03-31T21:04:00.227Z,23.31
2019-03-31T21:06:26.865Z,23.31
2019-03-31T21:08:53.525Z,23.27
2019-03-31T21:11:20.176Z,23.27
2019-03-31T21:13:46.846Z,23.27
2019-03-31T21:16:13.487Z,23.25
2019-03-31T21:18:40.165Z,23.20
2019-03-31T21:21:06.809Z,23.23
2019-03-31T21:23:33.436Z,23.22
2019-03-31T21:26:00.094Z,23.19
2019-03-31T21:28:26.740Z,23.16
2019-03-31T21:30:53.424Z,23.14
2019-03-31T21:33:20.116Z,23.15
2019-03-31T21:35:48.601Z,23.16
2019-03-31T21:38:13.436Z,23.12
2019-03-31T21:40:40.073Z,23.14
2019-03-31T21:43:06.760Z,23.11
2019-03-31T21:45:33.452Z,23.11
2019-03-31T21:48:00.183Z,23.10
2019-03-31T21:50:26.775Z,23.08
2019-03-31T21:52:53.472Z,23.06
2019-03-31T21:55:20.114Z,23.05
2019-03-31T21:57:46.770Z,23.04
2019-03-31T22:00:13.412Z,23.06
2019-03-31T22:02:40.061Z,23.03
2019-03-31T22:05:06.759Z,23.03
2019-03-31T22:07:33.427Z,23.02
2019-03-31T22:10:00.321Z,23.01
2019-03-31T22:12:26.776Z,23.00
2019-03-31T22:14:53.473Z,22.98
2019-03-31T22:17:20.103Z,22.95
2019-03-31T22:19:46.749Z,22.94
2019-03-31T22:22:13.421Z,22.93
2019-03-31T22:24:40.053Z,22.95
2019-03-31T22:27:06.730Z,22.90
2019-03-31T22:29:33.381Z,22.89
2019-03-31T22:32:00.079Z,22.89
2019-03-31T22:34:26.716Z,22.90
2019-03-31T22:36:53.431Z,22.88
2019-03-31T22:39:20.070Z,22.88
2019-03-31T22:41:46.736Z,22.87
2019-03-31T22:44:13.391Z,22.88
2019-03-31T22:46:53.479Z,22.88
2019-03-31T22:49:06.741Z,22.88
2019-03-31T22:51:33.441Z,22.83
2019-03-31T22:54:00.131Z,22.80
2019-03-31T22:56:26.820Z,22.79
2019-03-31T22:58:53.464Z,22.76
2019-03-31T23:01:20.130Z,22.76
2019-03-31T23:03:46.800Z,22.77
2019-03-31T23:06:13.442Z,22.74
2019-03-31T23:08:40.152Z,22.72
2019-03-31T23:11:06.816Z,22.72
2019-03-31T23:13:33.466Z,22.66
2019-03-31T23:16:00.116Z,22.57
2019-03-31T23:18:26.757Z,22.53
2019-03-31T23:20:53.401Z,22.48
2019-03-31T23:23:20.585Z,22.49
2019-03-31T23:25:47.279Z,22.54
2019-03-31T23:28:13.917Z,22.55
2019-03-31T23:30:40.575Z,22.55
2019-03-31T23:33:07.233Z,22.56
2019-03-31T23:35:33.903Z,22.56
2019-03-31T23:38:00.592Z,22.52
2019-03-31T23:40:27.419Z,22.49
2019-03-31T23:42:54.049Z,22.50
2019-03-31T23:45:20.688Z,22.52
2019-03-31T23:47:47.399Z,22.53
2019-03-31T23:50:14.029Z,22.52
2019-03-31T23:52:40.675Z,22.55
2019-03-31T23:55:07.336Z,22.52
2019-03-31T23:57:33.988Z,22.48
